Time;durP1;ratioP1;P1;durP2;ratioP2;P2;SDS_P1;SDS_P2;PMS_P1;PMS_P2;Temp;Humidity;BMP_temperature;BMP_pressure;BME280_temperature;BME280_humidity;BME280_pressure;Samples;Min_cycle;Max_cycle;Signal;HPM_P1;HPM_P2
2022/03/18 00:00:18;;;;;;;20.80;16.90;;;12.80;62.10;;;;;;5033648;28;20049;-85
2022/03/18 00:02:45;;;;;;;21.23;15.60;;;12.80;61.90;;;;;;5033333;28;20083;-88
2022/03/18 00:05:11;;;;;;;26.17;19.08;;;12.70;61.80;;;;;;5037994;28;20030;-86
2022/03/18 00:07:38;;;;;;;19.00;16.05;;;12.70;61.60;;;;;;5019647;28;20374;-84
2022/03/18 00:10:05;;;;;;;21.85;15.00;;;12.70;61.60;;;;;;5018916;28;20030;-85
2022/03/18 00:12:30;;;;;;;21.40;15.65;;;12.60;62.10;;;;;;5019203;28;20057;-83
2022/03/18 00:14:56;;;;;;;19.92;14.60;;;12.60;62.90;;;;;;5036331;28;20478;-85
2022/03/18 00:17:22;;;;;;;21.38;14.52;;;12.70;62.40;;;;;;5035947;28;20069;-83
2022/03/18 00:19:47;;;;;;;17.33;14.15;;;12.80;62.70;;;;;;5034352;28;20055;-83
2022/03/18 00:22:13;;;;;;;20.67;14.25;;;12.80;63.00;;;;;;5032867;28;20049;-84
2022/03/18 00:24:39;;;;;;;18.98;13.57;;;12.80;61.60;;;;;;5035177;28;20107;-84
2022/03/18 00:27:05;;;;;;;16.50;13.57;;;12.80;61.30;;;;;;5035418;28;20026;-83
2022/03/18 00:29:32;;;;;;;24.10;15.98;;;12.80;61.00;;;;;;5035206;28;20043;-83
2022/03/18 00:31:58;;;;;;;19.55;13.13;;;12.80;59.10;;;;;;5035449;28;20026;-82
2022/03/18 00:34:24;;;;;;;19.98;13.60;;;12.80;60.00;;;;;;5018414;28;20490;-87
2022/03/18 00:36:50;;;;;;;22.73;16.27;;;12.90;60.00;;;;;;5037684;28;20029;-87
2022/03/18 00:39:16;;;;;;;18.95;13.85;;;12.80;58.00;;;;;;5037636;28;20054;-84
2022/03/18 00:41:42;;;;;;;24.58;13.82;;;12.80;57.50;;;;;;5018599;28;20037;-84
2022/03/18 00:44:08;;;;;;;18.15;13.18;;;12.90;58.40;;;;;;5036265;28;20124;-84
2022/03/18 00:46:34;;;;;;;19.52;14.18;;;12.90;57.40;;;;;;5036205;28;20068;-84
2022/03/18 00:54:28;;;;;;;22.20;13.73;;;12.90;56.30;;;;;;5035965;28;20063;-84
2022/03/18 00:56:54;;;;;;;15.65;12.93;;;13.00;56.00;;;;;;5036584;28;20525;-85
2022/03/18 00:59:20;;;;;;;20.73;15.10;;;13.00;57.20;;;;;;5018288;28;20045;-86
2022/03/18 01:01:46;;;;;;;18.90;14.65;;;13.00;56.90;;;;;;5012965;28;20132;-85
2022/03/18 01:04:11;;;;;;;16.65;13.60;;;13.00;55.60;;;;;;5034329;28;20041;-85
2022/03/18 01:06:37;;;;;;;25.95;15.45;;;13.00;55.70;;;;;;5019287;28;20088;-90
2022/03/18 01:09:04;;;;;;;20.63;13.60;;;13.00;55.90;;;;;;5037996;28;20181;-90
2022/03/18 01:11:30;;;;;;;22.52;16.05;;;12.90;55.40;;;;;;5038245;28;20387;-88
2022/03/18 01:13:56;;;;;;;22.15;14.18;;;12.90;55.30;;;;;;5019040;28;20037;-87
2022/03/18 01:16:22;;;;;;;22.38;14.93;;;12.90;56.00;;;;;;5037215;28;20029;-87
2022/03/18 01:18:47;;;;;;;19.88;15.35;;;12.80;55.80;;;;;;5019222;28;20084;-88
2022/03/18 01:21:13;;;;;;;19.88;14.95;;;12.80;56.00;;;;;;5035416;28;20043;-88
2022/03/18 01:23:39;;;;;;;21.27;15.75;;;12.80;56.00;;;;;;5035704;28;20507;-89
2022/03/18 01:26:05;;;;;;;20.25;14.80;;;12.80;56.10;;;;;;5037714;28;20033;-89
2022/03/18 01:28:31;;;;;;;20.98;15.52;;;12.80;56.20;;;;;;5037008;28;20044;-89
2022/03/18 01:30:57;;;;;;;22.60;15.80;;;12.70;55.50;;;;;;5020745;28;20052;-93
2022/03/18 01:33:23;;;;;;;27.60;16.33;;;12.70;56.00;;;;;;5020324;28;20461;-90
2022/03/18 01:35:48;;;;;;;25.45;17.08;;;12.60;55.50;;;;;;5038240;28;20112;-94
2022/03/18 01:38:14;;;;;;;21.38;14.52;;;12.50;56.40;;;;;;5020321;28;20049;-93
2022/03/18 01:40:40;;;;;;;20.92;14.93;;;12.60;56.50;;;;;;5038074;28;20115;-91
2022/03/18 01:43:10;;;;;;;23.88;15.85;;;12.60;56.10;;;;;;5037658;28;20037;-89
2022/03/18 01:45:36;;;;;;;20.15;14.50;;;12.60;56.60;;;;;;5037668;28;20168;-93
2022/03/18 01:48:03;;;;;;;21.55;14.65;;;12.60;56.40;;;;;;5019426;28;20501;-90
2022/03/18 01:50:30;;;;;;;22.73;15.63;;;12.60;56.80;;;;;;5037093;28;20025;-94
2022/03/18 01:52:56;;;;;;;22.30;15.23;;;12.50;56.50;;;;;;5037871;28;20033;-91
2022/03/18 01:55:23;;;;;;;18.15;15.27;;;12.50;56.20;;;;;;5019588;28;20033;-91
2022/03/18 01:57:49;;;;;;;22.63;15.35;;;12.50;55.70;;;;;;5037704;28;20124;-92
2022/03/18 02:00:15;;;;;;;20.27;15.65;;;12.50;56.10;;;;;;5018208;28;20073;-91
2022/03/18 02:02:41;;;;;;;18.95;14.40;;;12.50;56.70;;;;;;5020048;28;20053;-92
2022/03/18 02:05:09;;;;;;;21.88;16.55;;;12.50;56.30;;;;;;5019566;28;20092;-90
2022/03/18 02:07:34;;;;;;;18.02;14.43;;;12.50;55.50;;;;;;5018457;28;20048;-86
2022/03/18 02:10:00;;;;;;;20.17;14.40;;;12.40;56.00;;;;;;5036052;28;20389;-87
2022/03/18 02:12:26;;;;;;;26.75;16.63;;;12.50;55.80;;;;;;5001913;28;20076;-86
2022/03/18 02:14:52;;;;;;;20.83;17.20;;;12.40;56.00;;;;;;5035823;28;20041;-86
2022/03/18 02:17:18;;;;;;;24.85;16.17;;;12.30;56.00;;;;;;5017664;28;20036;-86
2022/03/18 02:19:45;;;;;;;20.25;16.00;;;12.30;55.90;;;;;;5036296;28;20505;-86
2022/03/18 02:22:13;;;;;;;20.48;15.30;;;12.20;56.10;;;;;;5035762;28;20061;-86
2022/03/18 02:24:40;;;;;;;27.77;18.33;;;12.20;56.50;;;;;;5035918;28;20525;-85
2022/03/18 02:27:06;;;;;;;21.92;17.17;;;12.10;55.90;;;;;;5016968;28;20033;-86
2022/03/18 02:29:32;;;;;;;19.27;15.68;;;12.10;56.50;;;;;;5018256;28;20048;-87
2022/03/18 02:31:59;;;;;;;24.83;16.00;;;12.10;57.00;;;;;;5036098;28;20033;-87
2022/03/18 02:34:26;;;;;;;21.23;14.55;;;12.10;56.70;;;;;;5035869;28;20041;-86
2022/03/18 02:36:52;;;;;;;20.77;15.75;;;12.20;55.90;;;;;;5018331;28;20113;-85
2022/03/18 02:39:18;;;;;;;22.70;15.63;;;12.10;56.10;;;;;;5035549;28;20477;-86
2022/03/18 02:41:43;;;;;;;21.13;16.50;;;12.20;57.00;;;;;;5035636;28;20036;-84
2022/03/18 02:44:09;;;;;;;34.97;16.13;;;12.20;56.00;;;;;;5016043;28;20038;-83
2022/03/18 02:46:35;;;;;;;24.88;16.20;;;12.20;56.10;;;;;;5016255;28;20470;-84
2022/03/18 02:49:05;;;;;;;22.10;16.10;;;12.20;56.70;;;;;;5014731;28;20107;-84
2022/03/18 02:51:31;;;;;;;21.08;14.10;;;12.20;56.40;;;;;;5026402;28;20068;-84
2022/03/18 02:53:59;;;;;;;20.25;14.95;;;12.20;56.20;;;;;;5034064;28;20045;-84
2022/03/18 02:56:25;;;;;;;18.65;15.00;;;12.30;56.50;;;;;;5033537;28;20041;-84
2022/03/18 02:58:51;;;;;;;24.88;15.32;;;12.30;56.50;;;;;;5034572;28;20033;-85
2022/03/18 03:01:17;;;;;;;18.08;15.02;;;12.30;56.30;;;;;;5016087;28;20041;-85
2022/03/18 03:03:43;;;;;;;19.40;15.85;;;12.30;56.40;;;;;;5034552;28;20469;-85
2022/03/18 03:08:53;;;;;;;23.67;16.27;;;12.20;56.10;;;;;;5033812;28;20458;-84
2022/03/18 03:11:21;;;;;;;19.70;14.57;;;12.10;55.60;;;;;;5033922;28;20125;-85
2022/03/18 03:13:46;;;;;;;20.73;15.10;;;12.20;56.40;;;;;;5034689;28;20462;-86
2022/03/18 03:16:13;;;;;;;23.50;14.80;;;12.20;55.90;;;;;;5034667;28;20022;-85
2022/03/18 03:18:39;;;;;;;22.17;14.73;;;12.20;56.50;;;;;;5034165;28;20029;-86
2022/03/18 03:21:04;;;;;;;23.27;16.75;;;12.20;56.00;;;;;;5034006;28;20072;-84
2022/03/18 03:23:30;;;;;;;21.23;15.27;;;12.30;56.80;;;;;;5004132;28;20034;-84
2022/03/18 03:25:56;;;;;;;19.75;15.60;;;12.20;56.20;;;;;;4996389;28;20042;-83
2022/03/18 03:28:22;;;;;;;24.13;16.65;;;12.20;56.80;;;;;;5013610;28;20160;-83
2022/03/18 03:30:49;;;;;;;26.40;17.63;;;12.20;56.10;;;;;;5032840;28;20129;-82
2022/03/18 03:33:15;;;;;;;20.40;14.40;;;12.10;56.20;;;;;;5032117;28;20492;-82
2022/03/18 03:35:43;;;;;;;21.48;16.38;;;12.10;56.10;;;;;;5014864;28;20441;-82
2022/03/18 03:38:10;;;;;;;19.65;15.57;;;12.10;56.70;;;;;;5007691;28;20092;-84
2022/03/18 03:40:37;;;;;;;21.42;14.88;;;12.10;56.50;;;;;;5016448;28;20079;-85
2022/03/18 03:43:02;;;;;;;20.17;16.00;;;12.20;57.00;;;;;;5020083;28;20038;-85
2022/03/18 03:45:28;;;;;;;18.50;15.05;;;12.10;56.10;;;;;;5015968;28;20096;-84
2022/03/18 03:47:54;;;;;;;21.55;16.52;;;12.10;56.30;;;;;;5033010;28;20106;-85
2022/03/18 03:50:20;;;;;;;21.65;17.05;;;12.20;55.90;;;;;;5013931;28;20037;-85
2022/03/18 03:52:46;;;;;;;22.00;16.27;;;12.20;55.60;;;;;;5016058;28;20041;-85
2022/03/18 03:55:13;;;;;;;20.67;16.48;;;12.20;56.40;;;;;;5033437;28;20041;-82
2022/03/18 03:57:40;;;;;;;26.80;15.45;;;12.10;56.20;;;;;;5026968;28;20502;-84
2022/03/18 04:00:11;;;;;;;24.33;17.35;;;12.10;56.20;;;;;;5033659;28;20044;-84
2022/03/18 04:02:37;;;;;;;21.73;15.85;;;12.10;56.20;;;;;;5014812;28;20074;-84
2022/03/18 04:05:07;;;;;;;21.52;16.08;;;12.10;56.00;;;;;;5032845;28;20072;-83
2022/03/18 04:07:33;;;;;;;;;;;12.10;55.40;;;;;;5032959;28;20034;-83
2022/03/18 04:09:59;;;;;;;23.58;16.52;;;12.10;55.90;;;;;;5033160;28;19916;-84
2022/03/18 04:12:24;;;;;;;24.02;16.90;;;12.10;55.70;;;;;;5033185;28;20037;-84
2022/03/18 04:14:51;;;;;;;21.95;16.63;;;12.10;56.30;;;;;;5033206;28;20117;-82
2022/03/18 04:17:17;;;;;;;25.02;17.52;;;12.10;56.00;;;;;;5032491;28;20040;-84
2022/03/18 04:19:43;;;;;;;25.35;18.15;;;12.00;55.50;;;;;;5009350;28;20033;-83
2022/03/18 04:22:09;;;;;;;20.02;15.18;;;11.90;56.10;;;;;;5023218;28;20398;-84
2022/03/18 04:24:35;;;;;;;20.98;16.90;;;11.90;56.80;;;;;;5033040;28;20091;-84
2022/03/18 04:27:00;;;;;;;23.58;16.42;;;11.90;57.00;;;;;;5033450;28;20041;-85
2022/03/18 04:29:26;;;;;;;23.45;17.33;;;11.90;56.90;;;;;;5033460;28;20033;-85
2022/03/18 04:31:52;;;;;;;23.90;17.27;;;11.90;56.90;;;;;;5016105;28;20449;-85
2022/03/18 04:34:18;;;;;;;23.85;16.40;;;11.90;57.30;;;;;;5015794;28;20392;-85
2022/03/18 04:36:45;;;;;;;24.30;17.33;;;11.90;57.40;;;;;;5015979;28;20054;-86
2022/03/18 04:39:11;;;;;;;26.02;17.40;;;11.80;57.30;;;;;;5015143;28;20053;-84
2022/03/18 04:41:37;;;;;;;23.77;17.50;;;11.80;57.80;;;;;;5033395;28;20108;-86
2022/03/18 04:44:03;;;;;;;24.80;16.58;;;11.70;57.90;;;;;;5034076;28;20037;-87
2022/03/18 04:46:31;;;;;;;26.67;18.15;;;11.70;57.80;;;;;;5033341;28;20026;-86
2022/03/18 04:49:00;;;;;;;22.60;16.58;;;11.80;58.00;;;;;;5033064;28;20038;-85
2022/03/18 04:51:26;;;;;;;21.83;17.90;;;11.70;57.50;;;;;;4999502;28;20042;-84
2022/03/18 04:53:52;;;;;;;20.92;16.02;;;11.60;57.60;;;;;;5017316;28;20038;-85
2022/03/18 04:59:05;;;;;;;21.42;16.88;;;11.70;57.10;;;;;;5037009;28;20055;-85
2022/03/18 05:01:31;;;;;;;22.48;16.20;;;11.80;57.70;;;;;;5018770;28;20041;-83
2022/03/18 05:03:57;;;;;;;21.05;16.48;;;11.80;57.00;;;;;;5036460;28;20033;-83
2022/03/18 05:06:23;;;;;;;24.88;16.85;;;11.90;57.60;;;;;;5035814;28;20463;-83
2022/03/18 05:08:48;;;;;;;23.45;16.38;;;11.80;57.00;;;;;;5035874;28;20034;-83
2022/03/18 05:11:20;;;;;;;22.08;15.75;;;11.80;56.20;;;;;;5035573;28;20497;-82
2022/03/18 05:13:46;;;;;;;22.45;17.45;;;11.80;56.50;;;;;;5017872;28;20037;-82
2022/03/18 05:16:12;;;;;;;25.33;17.20;;;11.80;56.30;;;;;;5017118;28;20063;-82
2022/03/18 05:18:38;;;;;;;22.25;16.50;;;11.80;57.00;;;;;;5015637;28;20822;-82
2022/03/18 05:21:03;;;;;;;26.95;16.35;;;11.90;56.80;;;;;;5017465;28;20080;-82
2022/03/18 05:23:29;;;;;;;25.35;17.95;;;11.90;57.00;;;;;;5034283;28;20088;-82
2022/03/18 05:25:55;;;;;;;26.05;17.23;;;11.80;56.80;;;;;;5035473;28;20041;-82
2022/03/18 05:28:21;;;;;;;23.65;16.90;;;11.80;56.80;;;;;;5029914;28;20452;-81
2022/03/18 05:30:47;;;;;;;20.10;16.58;;;11.90;55.90;;;;;;5032455;28;20041;-81
2022/03/18 05:33:12;;;;;;;23.65;17.00;;;11.90;56.20;;;;;;5011044;28;20398;-81
2022/03/18 05:35:38;;;;;;;25.55;19.73;;;11.90;56.20;;;;;;5031421;28;20049;-81
2022/03/18 05:38:04;;;;;;;26.88;19.63;;;11.80;55.50;;;;;;5033548;28;20179;-81
2022/03/18 05:40:30;;;;;;;25.73;17.00;;;11.80;56.20;;;;;;5026931;28;20057;-81
2022/03/18 05:42:56;;;;;;;25.00;17.02;;;11.70;56.10;;;;;;5034015;28;20408;-83
2022/03/18 05:45:22;;;;;;;22.38;16.80;;;11.80;56.40;;;;;;5033334;28;20127;-82
2022/03/18 05:47:49;;;;;;;20.98;17.13;;;11.70;56.00;;;;;;5029140;28;20037;-83
2022/03/18 05:50:16;;;;;;;22.23;16.30;;;11.70;56.50;;;;;;5016249;28;20041;-84
2022/03/18 05:52:45;;;;;;;20.23;15.90;;;11.80;56.90;;;;;;5034349;28;20037;-85
2022/03/18 05:55:11;;;;;;;22.75;17.02;;;11.70;56.70;;;;;;5015930;28;20099;-84
2022/03/18 05:57:37;;;;;;;25.80;17.73;;;11.80;56.70;;;;;;5016161;28;20045;-83
2022/03/18 06:00:04;;;;;;;28.63;18.60;;;11.80;56.20;;;;;;5016024;28;20033;-83
2022/03/18 06:02:29;;;;;;;28.40;18.25;;;11.70;56.10;;;;;;5034994;28;20033;-86
2022/03/18 06:04:55;;;;;;;25.88;18.35;;;11.60;56.50;;;;;;5028787;28;20048;-84
2022/03/18 06:07:21;;;;;;;23.45;17.75;;;11.60;56.80;;;;;;5011271;28;20157;-82
2022/03/18 06:12:31;;;;;;;24.27;16.65;;;11.50;57.10;;;;;;5032222;28;20484;-79
2022/03/18 06:14:56;;;;;;;29.88;18.65;;;11.60;57.30;;;;;;5036056;28;20029;-86
2022/03/18 06:17:22;;;;;;;21.98;15.93;;;11.60;56.50;;;;;;5036675;28;20033;-89
2022/03/18 06:19:48;;;;;;;25.60;16.58;;;11.60;57.20;;;;;;5018504;28;20038;-89
2022/03/18 06:22:14;;;;;;;28.25;19.17;;;11.70;57.30;;;;;;5035950;28;20049;-85
2022/03/18 06:24:40;;;;;;;27.67;16.38;;;11.60;57.40;;;;;;5017518;28;20045;-84
2022/03/18 06:27:06;;;;;;;21.55;16.48;;;11.70;58.90;;;;;;5034299;28;20060;-84
2022/03/18 06:29:31;;;;;;;23.75;17.63;;;11.70;57.30;;;;;;5033875;28;20030;-83
2022/03/18 06:32:01;;;;;;;30.15;19.23;;;11.70;57.60;;;;;;5028798;28;20052;-83
2022/03/18 06:34:27;;;;;;;22.25;15.50;;;11.70;57.10;;;;;;5033241;28;20122;-83
2022/03/18 06:36:56;;;;;;;25.40;18.92;;;11.60;57.10;;;;;;5033943;28;20143;-83
2022/03/18 06:39:25;;;;;;;24.17;17.20;;;11.70;58.30;;;;;;5032700;28;20143;-87
2022/03/18 06:41:51;;;;;;;22.05;15.77;;;11.70;57.70;;;;;;5030127;28;20383;-83
2022/03/18 06:44:17;;;;;;;25.75;16.60;;;11.80;57.80;;;;;;5032875;28;20042;-83
2022/03/18 06:46:43;;;;;;;21.70;16.77;;;11.80;57.30;;;;;;5033851;28;20036;-83
2022/03/18 06:49:09;;;;;;;20.65;15.55;;;11.80;58.10;;;;;;5032811;28;20032;-83
2022/03/18 06:51:35;;;;;;;22.00;14.80;;;11.90;57.90;;;;;;5031966;28;20481;-79
2022/03/18 06:54:01;;;;;;;20.33;15.43;;;11.90;57.50;;;;;;5032654;28;20034;-83
2022/03/18 06:56:27;;;;;;;21.65;16.45;;;11.90;57.40;;;;;;5026735;28;20041;-83
2022/03/18 06:58:53;;;;;;;20.67;15.48;;;11.80;57.70;;;;;;5027467;28;20454;-83
2022/03/18 07:01:21;;;;;;;24.10;16.42;;;11.90;57.20;;;;;;5026197;28;20156;-85
2022/03/18 07:03:48;;;;;;;21.17;17.60;;;11.90;57.10;;;;;;5032249;28;20049;-84
2022/03/18 07:06:14;;;;;;;18.75;16.02;;;11.90;57.10;;;;;;5033584;28;20393;-84
2022/03/18 07:08:40;;;;;;;20.08;15.02;;;11.90;58.60;;;;;;5029197;28;20042;-84
2022/03/18 07:11:06;;;;;;;23.48;17.15;;;11.90;57.90;;;;;;5030925;28;20029;-84
2022/03/18 07:13:32;;;;;;;22.92;16.67;;;12.00;56.00;;;;;;5033698;28;20127;-85
2022/03/18 07:17:55;;;;;;;26.23;16.27;;;12.00;56.00;;;;;;5028017;28;20428;-88
2022/03/18 07:18:46;;;;;;;19.58;14.73;;;12.10;58.10;;;;;;5018916;28;20135;-86
2022/03/18 07:21:11;;;;;;;19.15;14.63;;;12.10;57.10;;;;;;5031456;28;20021;-87
2022/03/18 07:23:37;;;;;;;20.00;14.70;;;12.10;58.60;;;;;;5032925;28;20034;-87
2022/03/18 07:26:03;;;;;;;22.90;15.95;;;12.20;56.20;;;;;;5033411;28;20449;-85
2022/03/18 07:28:28;;;;;;;19.63;15.23;;;12.20;56.20;;;;;;5034122;28;20064;-85
2022/03/18 07:30:55;;;;;;;17.70;14.10;;;12.20;56.50;;;;;;5034549;28;20057;-85
2022/03/18 07:33:21;;;;;;;19.08;14.02;;;12.30;57.20;;;;;;5014559;28;20037;-79
2022/03/18 07:35:47;;;;;;;22.55;13.75;;;12.30;57.00;;;;;;5031400;28;20121;-81
2022/03/18 07:38:13;;;;;;;19.02;13.80;;;12.30;58.10;;;;;;5025332;28;20042;-81
2022/03/18 07:40:40;;;;;;;21.30;13.57;;;12.30;58.00;;;;;;5005542;28;20722;-81
2022/03/18 07:43:08;;;;;;;19.30;12.45;;;12.40;59.60;;;;;;5002713;28;20044;-85
2022/03/18 07:45:37;;;;;;;14.15;11.80;;;12.50;59.80;;;;;;5023370;28;20045;-86
2022/03/18 07:48:05;;;;;;;14.35;10.98;;;12.60;59.60;;;;;;5026196;28;20405;-86
2022/03/18 07:50:32;;;;;;;17.70;10.98;;;12.60;59.10;;;;;;5021989;28;20029;-86
2022/03/18 07:53:11;;;;;;;14.63;10.77;;;12.70;58.60;;;;;;5017658;28;20042;-86
2022/03/18 07:55:42;;;;;;;19.60;11.93;;;12.70;60.20;;;;;;5028268;28;20061;-87
2022/03/18 07:58:08;;;;;;;15.43;10.68;;;12.80;58.30;;;;;;5022177;28;20044;-80
2022/03/18 08:00:35;;;;;;;18.05;11.30;;;12.80;58.20;;;;;;5021617;28;20402;-80
2022/03/18 08:03:01;;;;;;;20.67;11.27;;;12.80;58.00;;;;;;5024768;28;20046;-81
2022/03/18 08:05:27;;;;;;;28.27;10.93;;;12.80;56.80;;;;;;5005159;28;20038;-81
2022/03/18 08:07:53;;;;;;;18.70;11.07;;;12.80;58.20;;;;;;5024430;28;20033;-81
2022/03/18 08:10:21;;;;;;;15.85;10.80;;;12.90;57.90;;;;;;5031125;28;20115;-83
2022/03/18 08:12:48;;;;;;;14.55;10.25;;;12.90;57.80;;;;;;5005193;28;20034;-81
2022/03/18 08:15:15;;;;;;;15.27;9.90;;;12.90;57.40;;;;;;5018941;28;20037;-82
2022/03/18 08:17:42;;;;;;;16.92;11.05;;;13.00;56.50;;;;;;5020782;28;20107;-81
2022/03/18 08:20:10;;;;;;;12.05;9.70;;;12.90;57.10;;;;;;5033547;28;20041;-81
2022/03/18 08:22:36;;;;;;;13.18;9.55;;;12.90;57.60;;;;;;5032888;28;20061;-82
2022/03/18 08:25:03;;;;;;;11.93;9.35;;;13.00;57.70;;;;;;5034530;28;20042;-81
2022/03/18 08:27:29;;;;;;;17.83;9.75;;;13.00;57.70;;;;;;5034829;28;20119;-85
2022/03/18 08:29:59;;;;;;;15.27;10.05;;;13.00;57.60;;;;;;5037037;28;20048;-86
2022/03/18 08:32:26;;;;;;;13.15;9.32;;;13.10;57.30;;;;;;5037748;28;20033;-86
2022/03/18 08:34:53;;;;;;;12.68;9.00;;;13.10;57.70;;;;;;5020522;28;20137;-86
2022/03/18 08:40:04;;;;;;;11.65;8.77;;;13.10;57.70;;;;;;5035933;28;20044;-84
2022/03/18 08:42:30;;;;;;;15.55;8.70;;;13.20;57.30;;;;;;5034530;28;20037;-85
2022/03/18 08:44:56;;;;;;;13.45;9.23;;;13.20;57.30;;;;;;5036967;28;20091;-84
2022/03/18 08:47:23;;;;;;;16.13;8.48;;;13.20;56.80;;;;;;5038183;28;20478;-86
2022/03/18 08:49:49;;;;;;;13.52;7.95;;;13.30;57.40;;;;;;5037556;28;20048;-83
2022/03/18 08:52:16;;;;;;;19.92;8.60;;;13.30;57.60;;;;;;5037189;28;20477;-85
2022/03/18 08:54:42;;;;;;;19.98;9.18;;;13.30;57.10;;;;;;5037740;28;20069;-85
2022/03/18 08:57:08;;;;;;;12.98;7.90;;;13.30;57.90;;;;;;5037515;28;20037;-85
2022/03/18 08:59:33;;;;;;;18.48;8.15;;;13.30;57.40;;;;;;5038186;28;20470;-86
2022/03/18 09:01:59;;;;;;;15.85;8.82;;;13.40;57.00;;;;;;5033549;28;20545;-85
2022/03/18 09:04:25;;;;;;;19.88;8.38;;;13.40;58.10;;;;;;5035433;28;20104;-86
2022/03/18 09:06:51;;;;;;;84.00;61.33;;;13.40;57.40;;;;;;5036794;28;20402;-86
2022/03/18 09:09:16;;;;;;;105.28;85.13;;;13.50;58.00;;;;;;5019380;28;20037;-85
2022/03/18 09:11:42;;;;;;;20.90;12.50;;;13.50;57.90;;;;;;5012541;28;20042;-85
2022/03/18 09:14:08;;;;;;;17.13;9.25;;;13.50;57.30;;;;;;5017415;28;20040;-86
2022/03/18 09:16:36;;;;;;;12.13;8.07;;;13.50;57.20;;;;;;5016839;28;20458;-80
2022/03/18 09:19:03;;;;;;;14.38;8.70;;;13.60;57.00;;;;;;5010799;28;20033;-79
2022/03/18 09:21:29;;;;;;;17.33;8.63;;;13.70;56.90;;;;;;5034512;28;20041;-80
2022/03/18 09:23:55;;;;;;;16.30;8.27;;;13.60;56.80;;;;;;5017428;28;20094;-86
2022/03/18 09:26:21;;;;;;;12.48;8.85;;;13.60;56.60;;;;;;5030665;28;20029;-86
2022/03/18 09:28:47;;;;;;;14.52;8.13;;;13.60;55.90;;;;;;5036003;28;20053;-86
2022/03/18 09:31:13;;;;;;;15.25;8.57;;;13.70;55.70;;;;;;5036725;28;20476;-85
2022/03/18 09:33:42;;;;;;;8.55;7.50;;;13.70;55.50;;;;;;5035531;28;20037;-85
2022/03/18 09:36:08;;;;;;;16.15;9.65;;;13.70;55.60;;;;;;5018089;28;20037;-85
2022/03/18 09:38:34;;;;;;;13.65;8.60;;;13.70;54.90;;;;;;5017940;28;20128;-84
2022/03/18 09:40:59;;;;;;;13.30;9.18;;;13.70;55.30;;;;;;5036066;28;20107;-86
2022/03/18 09:43:32;;;;;;;13.95;9.35;;;13.80;55.30;;;;;;5034488;28;20041;-86
2022/03/18 09:45:59;;;;;;;29.77;9.13;;;13.80;55.40;;;;;;5029250;28;20116;-85
2022/03/18 09:48:25;;;;;;;18.83;8.75;;;13.80;55.00;;;;;;5023796;28;20524;-84
2022/03/18 09:50:52;;;;;;;12.75;8.95;;;13.90;55.20;;;;;;5020024;28;20211;-84
2022/03/18 09:53:18;;;;;;;19.30;10.05;;;14.00;54.80;;;;;;5016305;28;20037;-85
2022/03/18 09:55:44;;;;;;;13.98;8.30;;;14.00;54.20;;;;;;5036477;28;20052;-86
2022/03/18 09:58:11;;;;;;;17.48;9.95;;;14.10;54.40;;;;;;5028315;28;20025;-84
2022/03/18 10:00:37;;;;;;;17.05;8.68;;;14.10;54.40;;;;;;5027492;28;20418;-84
2022/03/18 10:03:16;;;;;;;14.27;9.10;;;14.20;54.50;;;;;;5031656;28;20132;-85
2022/03/18 10:05:59;;;;;;;18.77;9.30;;;14.30;54.70;;;;;;5030062;28;20034;-86
2022/03/18 10:08:45;;;;;;;18.35;9.32;;;14.30;53.10;;;;;;5028187;28;20029;-85
2022/03/18 10:11:19;;;;;;;14.18;8.82;;;14.30;52.30;;;;;;5029528;28;20036;-85
2022/03/18 10:13:52;;;;;;;13.63;8.63;;;14.40;52.70;;;;;;5030727;28;20033;-85
2022/03/18 10:16:35;;;;;;;12.65;8.55;;;14.50;52.30;;;;;;5026605;28;20060;-85
2022/03/18 10:19:06;;;;;;;18.92;10.55;;;14.60;52.20;;;;;;5003241;28;20041;-85
2022/03/18 10:21:34;;;;;;;12.27;8.48;;;14.70;52.50;;;;;;5033332;28;20033;-85
2022/03/18 10:24:08;;;;;;;14.13;8.63;;;14.80;52.80;;;;;;5023760;28;20041;-86
2022/03/18 10:26:38;;;;;;;14.55;8.73;;;14.90;52.70;;;;;;5011252;28;20389;-86
2022/03/18 10:29:05;;;;;;;15.60;9.32;;;15.00;51.50;;;;;;5004537;28;20056;-86
2022/03/18 10:31:31;;;;;;;11.40;7.75;;;15.10;52.30;;;;;;5009798;28;20041;-87
2022/03/18 10:39:41;;;;;;;18.70;9.82;;;15.30;50.90;;;;;;5027484;28;20053;-87
2022/03/18 10:42:11;;;;;;;14.48;8.45;;;15.30;50.30;;;;;;5016256;28;20034;-87
2022/03/18 10:44:47;;;;;;;;;;;15.30;50.30;;;;;;5012846;28;20785;-78
2022/03/18 10:47:32;;;;;;;14.07;7.95;;;15.40;50.60;;;;;;5007707;28;19920;-80
2022/03/18 10:50:10;;;;;;;13.27;7.90;;;15.50;50.30;;;;;;5030365;28;20065;-85
2022/03/18 10:52:48;;;;;;;15.23;8.65;;;15.50;50.20;;;;;;5032348;28;20820;-86
2022/03/18 10:55:23;;;;;;;21.23;9.35;;;15.70;49.80;;;;;;5035099;28;20393;-85
2022/03/18 10:57:54;;;;;;;13.15;7.97;;;15.70;48.90;;;;;;5035922;28;20048;-85
2022/03/18 11:00:22;;;;;;;11.13;8.00;;;15.70;48.40;;;;;;5026056;28;20034;-86
2022/03/18 11:02:50;;;;;;;10.68;7.50;;;15.70;47.40;;;;;;5015313;28;20128;-85
2022/03/18 11:05:22;;;;;;;13.70;7.97;;;15.80;48.50;;;;;;5014594;28;20102;-80
2022/03/18 11:07:51;;;;;;;13.73;8.05;;;15.90;48.70;;;;;;5008919;28;20029;-82
2022/03/18 11:13:04;;;;;;;11.55;7.30;;;16.20;47.80;;;;;;5033050;28;20509;-88
2022/03/18 11:15:31;;;;;;;14.45;8.85;;;16.30;48.20;;;;;;5030140;28;20049;-89
2022/03/18 11:17:58;;;;;;;10.95;8.50;;;16.50;47.20;;;;;;5026433;28;20095;-82
2022/03/18 11:20:29;;;;;;;13.15;7.97;;;16.60;46.30;;;;;;5025270;28;20068;-82
2022/03/18 11:22:55;;;;;;;14.63;8.18;;;16.70;46.70;;;;;;5016535;28;20041;-82
2022/03/18 11:25:22;;;;;;;13.48;8.07;;;16.90;46.20;;;;;;5021471;28;20100;-81
2022/03/18 11:27:48;;;;;;;14.00;8.80;;;16.90;45.80;;;;;;5025903;28;20045;-80
2022/03/18 11:30:28;;;;;;;12.68;8.50;;;17.10;44.70;;;;;;5032404;28;20447;-80
2022/03/18 11:33:14;;;;;;;14.02;7.80;;;17.20;43.40;;;;;;5026478;28;20044;-81
2022/03/18 11:35:49;;;;;;;12.07;8.05;;;17.20;42.60;;;;;;5029461;28;20116;-80
2022/03/18 11:38:22;;;;;;;14.20;7.85;;;17.20;43.10;;;;;;5031774;28;20069;-80
2022/03/18 11:41:00;;;;;;;9.95;7.70;;;17.20;42.90;;;;;;5034174;28;20026;-85
2022/03/18 11:43:30;;;;;;;10.20;7.57;;;17.30;43.00;;;;;;5034719;28;20053;-85
2022/03/18 11:46:14;;;;;;;12.52;8.25;;;17.40;42.70;;;;;;5032812;28;20048;-85
2022/03/18 11:49:02;;;;;;;10.25;7.72;;;17.50;43.90;;;;;;5032763;28;20029;-85
2022/03/18 11:51:42;;;;;;;12.60;7.47;;;17.60;42.90;;;;;;5028945;28;20033;-85
2022/03/18 11:54:12;;;;;;;13.25;8.75;;;17.80;42.70;;;;;;5033924;28;20052;-85
2022/03/18 11:56:54;;;;;;;12.27;7.93;;;17.80;41.40;;;;;;5028600;28;20037;-81
2022/03/18 11:59:27;;;;;;;9.93;6.85;;;17.90;41.40;;;;;;5022763;28;20139;-80
2022/03/18 12:02:28;;;;;;;9.93;7.85;;;18.10;39.40;;;;;;5009769;28;20053;-78
2022/03/18 12:04:58;;;;;;;11.20;7.60;;;17.90;39.60;;;;;;5019511;28;20057;-77
2022/03/18 12:07:28;;;;;;;8.65;6.82;;;17.90;40.90;;;;;;5025504;28;20030;-78
2022/03/18 12:10:00;;;;;;;10.82;7.93;;;17.80;41.40;;;;;;5025223;28;20025;-79
2022/03/18 12:12:26;;;;;;;14.90;8.02;;;17.70;40.90;;;;;;5027278;28;20140;-78
2022/03/18 12:14:53;;;;;;;11.93;7.88;;;17.80;40.10;;;;;;5027122;28;20636;-79
2022/03/18 12:17:21;;;;;;;11.07;7.53;;;17.80;40.40;;;;;;5016078;28;20120;-81
2022/03/18 12:20:01;;;;;;;12.55;8.40;;;17.90;41.10;;;;;;5029277;28;20033;-80
2022/03/18 12:22:29;;;;;;;9.52;7.22;;;17.80;40.70;;;;;;5015469;28;20041;-80
2022/03/18 12:24:56;;;;;;;9.85;7.22;;;17.90;40.90;;;;;;5026758;28;20045;-81
2022/03/18 12:27:33;;;;;;;10.75;7.65;;;17.90;39.80;;;;;;5033639;28;20033;-81
2022/03/18 12:30:03;;;;;;;14.20;7.93;;;17.90;40.20;;;;;;5029961;28;20048;-80
2022/03/18 12:32:30;;;;;;;11.85;8.07;;;17.90;39.50;;;;;;5011567;28;20421;-81
2022/03/18 12:35:04;;;;;;;11.18;7.40;;;18.00;39.10;;;;;;5026120;28;20087;-81
2022/03/18 12:37:31;;;;;;;14.32;8.00;;;18.10;38.50;;;;;;5028668;28;20179;-81
2022/03/18 12:40:08;;;;;;;9.55;7.60;;;18.30;38.90;;;;;;5029986;28;20144;-80
2022/03/18 12:42:56;;;;;;;8.77;7.60;;;18.50;37.40;;;;;;5024870;28;20034;-83
2022/03/18 12:45:25;;;;;;;12.63;7.50;;;18.70;37.20;;;;;;5008783;28;20041;-82
2022/03/18 12:47:58;;;;;;;9.98;7.43;;;18.80;36.50;;;;;;5028513;28;20111;-79
2022/03/18 12:50:32;;;;;;;12.15;7.00;;;18.90;36.80;;;;;;5035916;28;20042;-79
2022/03/18 12:52:58;;;;;;;28.88;9.25;;;19.00;37.60;;;;;;5016653;28;20071;-79
2022/03/18 12:55:25;;;;;;;11.30;7.68;;;19.30;36.00;;;;;;5034589;28;20053;-78
2022/03/18 12:57:51;;;;;;;18.88;8.48;;;19.40;36.80;;;;;;5034663;28;20063;-78